createdAt,value
2019-03-05T06:04:03.211Z,995.6
2019-03-05T06:05:16.289Z,995.7
2019-03-05T06:06:46.821Z,995.7
2019-03-05T06:08:17.500Z,995.6
2019-03-05T06:09:47.808Z,995.6
2019-03-05T06:11:18.320Z,995.8
2019-03-05T06:12:48.857Z,995.7
2019-03-05T06:14:19.301Z,995.7
2019-03-05T06:15:49.814Z,995.7
2019-03-05T06:17:20.317Z,995.7
2019-03-05T06:18:50.968Z,995.8
2019-03-05T06:20:03.862Z,995.9
2019-03-05T06:21:16.958Z,995.8
2019-03-05T06:22:50.437Z,995.7
2019-03-05T06:24:18.051Z,995.8
2019-03-05T06:25:48.533Z,995.8
2019-03-05T06:27:18.968Z,995.7
2019-03-05T06:28:49.478Z,995.8
2019-03-05T06:30:20.071Z,995.9
2019-03-05T06:33:21.007Z,995.9
2019-03-05T06:34:51.549Z,995.9
2019-03-05T06:36:04.751Z,995.9
2019-03-05T06:37:17.594Z,995.8
2019-03-05T06:38:48.102Z,995.8
2019-03-05T06:40:18.600Z,995.9
2019-03-05T06:41:49.112Z,995.9
2019-03-05T06:43:19.676Z,996
2019-03-05T06:44:50.194Z,996
2019-03-05T06:46:20.651Z,996
2019-03-05T06:47:51.242Z,996
2019-03-05T06:49:21.685Z,996
2019-03-05T06:50:52.200Z,995.9
2019-03-05T06:53:18.248Z,996
2019-03-05T06:54:48.758Z,996.1
2019-03-05T06:56:19.368Z,996.1
2019-03-05T06:59:20.306Z,996.2
2019-03-05T07:00:50.802Z,996.2
2019-03-05T07:02:21.363Z,996.2
2019-03-05T07:05:22.348Z,996.2
2019-03-05T07:06:52.861Z,996.3
2019-03-05T07:08:05.897Z,996.3
2019-03-05T07:09:18.943Z,996.3
2019-03-05T07:10:49.485Z,996.3
2019-03-05T07:12:19.947Z,996.3
2019-03-05T07:15:20.980Z,996.2
2019-03-05T07:16:51.504Z,996.3
2019-03-05T07:18:22.016Z,996.4
2019-03-05T07:19:52.532Z,996.4
2019-03-05T07:21:23.021Z,996.4
2019-03-05T07:22:53.605Z,996.4
2019-03-05T07:24:06.635Z,996.5
2019-03-05T07:25:19.674Z,996.5
2019-03-05T07:26:50.242Z,996.4
2019-03-05T07:28:20.636Z,996.5
2019-03-05T07:29:52.180Z,996.4
2019-03-05T07:31:21.697Z,996.4
2019-03-05T07:32:52.239Z,996.5
2019-03-05T07:34:22.674Z,996.4
2019-03-05T07:35:53.274Z,996.5
2019-03-05T07:37:23.881Z,996.5
2019-03-05T07:38:54.210Z,996.5
2019-03-05T07:40:07.357Z,996.5
2019-03-05T07:41:20.287Z,996.5
2019-03-05T07:42:50.784Z,996.7
2019-03-05T07:44:21.440Z,996.6
2019-03-05T07:45:51.806Z,996.5
2019-03-05T07:47:22.396Z,996.5
2019-03-05T07:48:52.897Z,996.5
2019-03-05T07:50:23.342Z,996.6
2019-03-05T07:51:53.858Z,996.6
2019-03-05T07:53:24.379Z,996.7
2019-03-05T07:54:54.962Z,996.6
2019-03-05T07:57:21.066Z,996.8
2019-03-05T07:58:51.470Z,996.7
2019-03-05T08:01:52.492Z,996.8
2019-03-05T08:03:22.988Z,996.8
2019-03-05T08:06:24.021Z,996.8
2019-03-05T08:07:54.570Z,996.8
2019-03-05T08:09:26.657Z,996.9
2019-03-05T08:10:58.124Z,996.8
2019-03-05T08:13:21.718Z,997
2019-03-05T08:14:52.141Z,996.9
2019-03-05T08:17:53.153Z,997
2019-03-05T08:19:23.666Z,997
2019-03-05T08:22:27.205Z,997.1
2019-03-05T08:25:25.710Z,997
2019-03-05T08:26:56.227Z,997.2
2019-03-05T08:28:09.335Z,997.2
2019-03-05T08:29:22.296Z,997.1
2019-03-05T08:30:52.814Z,997.2
2019-03-05T08:32:23.345Z,997.2
2019-03-05T08:33:53.896Z,997.3
2019-03-05T08:35:25.510Z,997.3
2019-03-05T08:36:54.936Z,997.2
2019-03-05T08:38:25.417Z,997.2
2019-03-05T08:39:55.962Z,997.3
2019-03-05T08:41:26.392Z,997.3
2019-03-05T08:42:57.005Z,997.4
2019-03-05T08:44:09.932Z,997.4
2019-03-05T08:45:23.087Z,997.5
2019-03-05T08:46:53.597Z,997.5
2019-03-05T08:48:24.111Z,997.6
2019-03-05T08:51:25.004Z,997.6
2019-03-05T08:52:55.514Z,997.7
2019-03-05T08:55:56.641Z,997.7
2019-03-05T08:58:57.639Z,997.7
2019-03-05T09:00:10.757Z,997.7
2019-03-05T09:01:23.711Z,997.7
2019-03-05T09:02:54.363Z,997.7
2019-03-05T09:04:24.734Z,997.8
2019-03-05T09:05:55.245Z,997.8
2019-03-05T09:08:56.193Z,997.7
2019-03-05T09:10:26.708Z,997.8
2019-03-05T09:11:57.218Z,997.7
2019-03-05T09:13:27.780Z,997.8
2019-03-05T09:14:58.236Z,997.9
2019-03-05T09:16:11.337Z,997.8
2019-03-05T09:18:54.905Z,997.9
2019-03-05T09:20:25.431Z,997.9
2019-03-05T09:21:55.840Z,997.9
2019-03-05T09:23:26.371Z,997.9
2019-03-05T09:24:56.950Z,997.8
2019-03-05T09:26:27.386Z,997.9
2019-03-05T09:27:57.968Z,998.1
2019-03-05T09:29:28.402Z,997.9
2019-03-05T09:30:58.973Z,997.8
2019-03-05T09:33:25.046Z,997.9
2019-03-05T09:34:55.583Z,998
2019-03-05T09:36:26.123Z,998
2019-03-05T09:37:56.525Z,998
2019-03-05T09:39:27.017Z,998
2019-03-05T09:40:57.544Z,998
2019-03-05T09:42:28.068Z,998
2019-03-05T09:43:58.982Z,998.2
2019-03-05T09:45:31.928Z,998.2
2019-03-05T09:46:59.689Z,998.2
2019-03-05T09:48:12.702Z,998
2019-03-05T09:49:25.685Z,998.1
2019-03-05T09:50:56.193Z,998.1
2019-03-05T09:52:26.787Z,998.2
2019-03-05T09:53:57.277Z,998.3
2019-03-05T09:55:27.693Z,998.1
2019-03-05T09:56:58.221Z,998.2
2019-03-05T09:58:28.732Z,998.2
2019-03-05T09:59:59.251Z,998.3
2019-03-05T10:03:00.303Z,998.2
2019-03-05T10:06:56.883Z,998.3
2019-03-05T10:08:27.421Z,998.4
2019-03-05T10:09:57.893Z,998.3
2019-03-05T10:11:28.412Z,998.3
2019-03-05T10:12:58.950Z,998.4
2019-03-05T10:14:29.467Z,998.4
2019-03-05T10:15:59.921Z,998.5
2019-03-05T10:19:01.034Z,998.4
2019-03-05T10:20:13.979Z,998.4
2019-03-05T10:21:27.000Z,998.3
2019-03-05T10:22:57.566Z,998.4
2019-03-05T10:24:28.577Z,998.2
2019-03-05T10:25:58.561Z,998.4
2019-03-05T10:27:29.127Z,998.4
2019-03-05T10:28:59.690Z,998.4
2019-03-05T10:30:30.161Z,998.4
2019-03-05T10:32:00.669Z,998.4
2019-03-05T10:33:31.131Z,998.4
2019-03-05T10:35:01.686Z,998.5
2019-03-05T10:36:14.647Z,998.4
2019-03-05T10:37:27.703Z,998.4
2019-03-05T10:38:58.280Z,998.4
2019-03-05T10:40:28.786Z,998.5
2019-03-05T10:41:59.214Z,998.6
2019-03-05T10:43:29.723Z,998.5
2019-03-05T10:45:00.547Z,998.5
2019-03-05T10:46:30.744Z,998.5
2019-03-05T10:48:01.262Z,998.5
2019-03-05T10:49:31.856Z,998.7
2019-03-05T10:51:05.748Z,998.6
2019-03-05T10:53:28.342Z,998.6
2019-03-05T10:54:58.978Z,998.6
2019-03-05T10:56:29.439Z,998.7
2019-03-05T10:57:59.949Z,998.7
2019-03-05T10:59:30.490Z,998.7
2019-03-05T11:01:00.931Z,998.7
2019-03-05T11:02:31.511Z,998.5
2019-03-05T11:04:02.026Z,998.7
2019-03-05T11:05:32.472Z,998.7
2019-03-05T11:07:02.970Z,998.8
2019-03-05T11:08:15.991Z,998.7
2019-03-05T11:10:59.551Z,998.7
2019-03-05T11:12:30.125Z,998.8
2019-03-05T11:14:00.595Z,998.7
2019-03-05T11:15:31.132Z,998.7
2019-03-05T11:17:01.677Z,998.7
2019-03-05T11:20:02.703Z,998.8
2019-03-05T11:21:33.173Z,998.8
2019-03-05T11:24:16.654Z,998.8
2019-03-05T11:25:29.689Z,998.9
2019-03-05T11:27:00.333Z,998.9
2019-03-05T11:28:30.738Z,998.9
2019-03-05T11:30:01.298Z,998.9
2019-03-05T11:31:31.751Z,998.8
2019-03-05T11:33:02.303Z,998.9
2019-03-05T11:34:32.774Z,998.9
2019-03-05T11:39:04.385Z,999
2019-03-05T11:40:17.374Z,998.9
2019-03-05T11:41:30.362Z,999
2019-03-05T11:43:00.891Z,998.9
2019-03-05T11:44:31.494Z,999
2019-03-05T11:46:01.894Z,998.9
2019-03-05T11:47:32.605Z,999
2019-03-05T11:49:03.081Z,999
2019-03-05T11:50:33.540Z,999.2
2019-03-05T11:52:03.972Z,999.2
2019-03-05T11:53:34.498Z,999.2
2019-03-05T11:55:05.082Z,999.2
2019-03-05T11:56:18.075Z,999.3
2019-03-05T11:57:31.155Z,999.3
2019-03-05T11:59:01.647Z,999.3
2019-03-05T12:00:32.135Z,999.3
2019-03-05T12:02:02.739Z,999.4
2019-03-05T12:03:33.158Z,999.5
2019-03-05T12:06:34.125Z,999.5
2019-03-05T12:08:04.722Z,999.4
2019-03-05T12:09:35.206Z,999.3
2019-03-05T12:11:05.670Z,999.3
2019-03-05T12:13:31.782Z,999.4
2019-03-05T12:15:02.330Z,999.4
2019-03-05T12:16:32.772Z,999.5
2019-03-05T12:18:03.417Z,999.5
2019-03-05T12:19:35.133Z,999.6
2019-03-05T12:21:04.296Z,999.5
2019-03-05T12:22:34.862Z,999.5
2019-03-05T12:24:05.395Z,999.6
2019-03-05T12:25:35.817Z,999.5
2019-03-05T12:27:06.319Z,999.5
2019-03-05T12:28:19.427Z,999.5
2019-03-05T12:29:32.437Z,999.5
2019-03-05T12:31:02.939Z,999.5
2019-03-05T12:34:03.921Z,999.5
2019-03-05T12:35:34.452Z,999.5
2019-03-05T12:37:06.934Z,999.5
2019-03-05T12:38:35.556Z,999.5
2019-03-05T12:40:06.025Z,999.6
2019-03-05T12:41:36.489Z,999.5
2019-03-05T12:43:07.060Z,999.6
2019-03-05T12:44:20.045Z,999.6
2019-03-05T12:47:03.663Z,999.7
2019-03-05T12:48:34.104Z,999.7
2019-03-05T12:50:04.665Z,999.6
2019-03-05T12:51:35.205Z,999.7
2019-03-05T12:53:05.638Z,999.6
2019-03-05T12:54:36.263Z,999.7
2019-03-05T12:56:06.850Z,999.7
2019-03-05T12:57:37.167Z,999.6
2019-03-05T12:59:07.690Z,999.7
2019-03-05T13:00:20.790Z,999.7
2019-03-05T13:01:33.785Z,999.8
2019-03-05T13:03:04.411Z,999.7
2019-03-05T13:04:38.901Z,999.8
2019-03-05T13:07:35.804Z,999.8
2019-03-05T13:09:06.338Z,999.7
2019-03-05T13:10:36.826Z,999.6
2019-03-05T13:12:07.346Z,999.7
2019-03-05T13:16:21.775Z,999.7
2019-03-05T13:17:34.425Z,999.7
2019-03-05T13:19:05.133Z,999.7
2019-03-05T13:20:35.513Z,999.8
2019-03-05T13:22:05.965Z,999.7
2019-03-05T13:23:36.660Z,999.8
2019-03-05T13:25:08.408Z,999.7
2019-03-05T13:26:37.496Z,999.8
2019-03-05T13:28:08.013Z,999.6
2019-03-05T13:29:38.518Z,999.8
2019-03-05T13:31:09.143Z,999.8
2019-03-05T13:33:35.133Z,999.8
2019-03-05T13:35:05.607Z,999.7
2019-03-05T13:36:36.403Z,999.8
2019-03-05T13:38:10.732Z,999.7
2019-03-05T13:39:37.128Z,999.8
2019-03-05T13:41:07.650Z,999.8
2019-03-05T13:42:38.166Z,999.9
2019-03-05T13:44:08.681Z,999.8
2019-03-05T13:45:39.213Z,999.9
2019-03-05T13:47:09.805Z,999.8
2019-03-05T13:48:22.755Z,1000
2019-03-05T13:49:35.803Z,999.9
2019-03-05T13:51:06.271Z,999.8
2019-03-05T13:52:36.803Z,1000
2019-03-05T13:54:07.406Z,999.9
2019-03-05T13:57:08.336Z,999.9
2019-03-05T13:58:38.924Z,1000.2
2019-03-05T14:00:09.339Z,1000
2019-03-05T14:01:39.936Z,1000
2019-03-05T14:03:10.374Z,1000
2019-03-05T14:04:23.489Z,1000
2019-03-05T14:07:07.055Z,1000.1
2019-03-05T14:08:37.873Z,1000
2019-03-05T14:10:07.989Z,1000
2019-03-05T14:13:09.005Z,1000
2019-03-05T14:14:43.157Z,1000.1
2019-03-05T14:16:10.026Z,1000.1
2019-03-05T14:17:40.567Z,1000
2019-03-05T14:19:11.108Z,1000.1
2019-03-05T14:20:24.082Z,1000
2019-03-05T14:21:37.252Z,1000
2019-03-05T14:23:07.652Z,1000.1
2019-03-05T14:24:38.143Z,1000.1
2019-03-05T14:26:08.637Z,1000.1
2019-03-05T14:27:39.231Z,1000.1
2019-03-05T14:29:09.685Z,1000.1
2019-03-05T14:30:40.226Z,1000.1
2019-03-05T14:32:10.736Z,1000.2
2019-03-05T14:33:41.232Z,1000.2
2019-03-05T14:35:11.788Z,1000.2
2019-03-05T14:36:24.846Z,1000.3
2019-03-05T14:37:37.889Z,1000.3
2019-03-05T14:39:08.296Z,1000.3
2019-03-05T14:40:43.680Z,1000.3
2019-03-05T14:42:09.385Z,1000.3
2019-03-05T14:43:39.926Z,1000.3
2019-03-05T14:46:40.971Z,1000.3
2019-03-05T14:48:11.472Z,1000.4
2019-03-05T14:49:41.976Z,1000.4
2019-03-05T14:51:12.736Z,1000.3
2019-03-05T14:53:38.509Z,1000.4
2019-03-05T14:55:09.139Z,1000.4
2019-03-05T14:56:39.497Z,1000.5
2019-03-05T14:58:10.021Z,1000.4
2019-03-05T14:59:40.577Z,1000.4
2019-03-05T15:02:41.572Z,1000.3
2019-03-05T15:04:12.037Z,1000.5
2019-03-05T15:05:42.637Z,1000.3
2019-03-05T15:07:13.163Z,1000.4
2019-03-05T15:08:26.138Z,1000.5
2019-03-05T15:09:39.300Z,1000.4
2019-03-05T15:11:09.652Z,1000.4
2019-03-05T15:12:40.191Z,1000.3
2019-03-05T15:14:10.736Z,1000.4
2019-03-05T15:15:41.267Z,1000.4
2019-03-05T15:17:11.723Z,1000.3
2019-03-05T15:18:42.340Z,1000.5
2019-03-05T15:20:12.759Z,1000.5
2019-03-05T15:21:43.310Z,1000.4
2019-03-05T15:23:13.767Z,1000.5
2019-03-05T15:24:26.766Z,1000.5
2019-03-05T15:25:39.815Z,1000.6
2019-03-05T15:27:10.336Z,1000.6
2019-03-05T15:28:40.836Z,1000.6
2019-03-05T15:30:11.366Z,1000.6
2019-03-05T15:31:41.939Z,1000.6
2019-03-05T15:33:12.360Z,1000.7
2019-03-05T15:34:42.895Z,1000.7
2019-03-05T15:36:16.739Z,1000.7
2019-03-05T15:37:43.970Z,1000.7
2019-03-05T15:39:14.420Z,1000.6
2019-03-05T15:40:27.472Z,1000.6
2019-03-05T15:41:40.669Z,1000.6
2019-03-05T15:43:11.109Z,1000.6
2019-03-05T15:44:41.560Z,1000.7
2019-03-05T15:46:12.098Z,1000.8
2019-03-05T15:47:42.527Z,1000.8
2019-03-05T15:49:13.400Z,1000.8
2019-03-05T15:50:43.653Z,1000.8
2019-03-05T15:52:14.068Z,1000.8
2019-03-05T15:53:44.602Z,1000.7
2019-03-05T15:55:15.094Z,1000.7
2019-03-05T15:56:28.122Z,1000.7
2019-03-05T15:57:41.175Z,1000.7
2019-03-05T15:59:11.728Z,1000.7
2019-03-05T16:00:42.266Z,1000.7
2019-03-05T16:02:12.699Z,1000.7
2019-03-05T16:03:43.260Z,1000.8
2019-03-05T16:05:13.787Z,1000.8
2019-03-05T16:06:44.244Z,1000.8
2019-03-05T16:08:14.734Z,1000.8
2019-03-05T16:09:45.386Z,1000.8
2019-03-05T16:11:15.885Z,1000.8
2019-03-05T16:13:41.930Z,1000.8
2019-03-05T16:15:12.425Z,1000.8
2019-03-05T16:16:42.902Z,1000.8
2019-03-05T16:18:13.387Z,1000.9
